createdAt,value
2018-06-21T00:00:55.869Z,20.77
2018-06-21T00:03:25.722Z,20.81
2018-06-21T00:05:55.650Z,20.79
2018-06-21T00:08:25.472Z,20.74
2018-06-21T00:10:55.344Z,20.86
2018-06-21T00:13:25.056Z,20.80
2018-06-21T00:15:54.724Z,20.75
2018-06-21T00:18:24.497Z,20.63
2018-06-21T00:20:54.355Z,20.70
2018-06-21T00:23:24.029Z,20.71
2018-06-21T00:25:54.322Z,20.70
2018-06-21T00:28:23.956Z,20.60
2018-06-21T00:30:53.669Z,20.53
2018-06-21T00:33:23.012Z,20.56
2018-06-21T00:35:52.738Z,20.48
2018-06-21T00:38:22.475Z,20.44
2018-06-21T00:40:52.158Z,20.43
2018-06-21T00:43:21.916Z,20.42
2018-06-21T00:45:51.605Z,20.32
2018-06-21T00:48:21.451Z,20.20
2018-06-21T00:50:50.830Z,20.00
2018-06-21T00:53:20.576Z,19.83
2018-06-21T00:56:00.901Z,19.62
2018-06-21T00:58:30.599Z,19.54
2018-06-21T01:01:00.338Z,19.49
2018-06-21T01:03:30.057Z,19.40
2018-06-21T01:05:59.494Z,19.30
2018-06-21T01:08:29.202Z,19.22
2018-06-21T01:10:59.027Z,19.10
2018-06-21T01:13:28.736Z,18.86
2018-06-21T01:15:58.434Z,18.67
2018-06-21T01:18:27.906Z,18.57
2018-06-21T01:20:58.396Z,18.52
2018-06-21T01:23:28.079Z,18.52
2018-06-21T01:25:57.994Z,18.74
2018-06-21T01:28:27.955Z,19.06
2018-06-21T01:30:57.857Z,19.20
2018-06-21T01:33:27.630Z,19.06
2018-06-21T01:35:57.342Z,18.96
2018-06-21T01:38:27.055Z,18.87
2018-06-21T01:40:56.761Z,18.97
2018-06-21T01:43:26.494Z,18.82
2018-06-21T01:45:56.218Z,18.71
2018-06-21T01:48:25.607Z,18.57
2018-06-21T01:50:55.277Z,18.68
2018-06-21T01:53:24.953Z,18.68
2018-06-21T01:55:55.297Z,18.82
2018-06-21T01:58:25.039Z,18.96
2018-06-21T02:00:54.730Z,18.88
2018-06-21T02:03:24.493Z,18.92
2018-06-21T02:05:54.259Z,18.73
2018-06-21T02:08:24.058Z,18.57
2018-06-21T02:10:53.769Z,18.41
2018-06-21T02:13:23.476Z,18.29
2018-06-21T02:15:53.196Z,18.29
2018-06-21T02:18:22.654Z,18.28
2018-06-21T02:20:52.663Z,18.28
2018-06-21T02:23:22.366Z,18.27
2018-06-21T02:25:53.638Z,18.24
2018-06-21T02:28:23.402Z,18.21
2018-06-21T02:30:53.489Z,18.46
2018-06-21T02:33:23.263Z,18.55
2018-06-21T02:35:53.138Z,18.62
2018-06-21T02:38:23.071Z,18.53
2018-06-21T02:40:52.458Z,18.39
2018-06-21T02:43:22.161Z,18.24
2018-06-21T02:45:51.983Z,18.15
2018-06-21T02:48:21.621Z,18.03
2018-06-21T02:50:51.427Z,17.83
2018-06-21T02:53:20.790Z,17.67
2018-06-21T02:55:50.522Z,17.51
2018-06-21T02:58:20.271Z,17.36
2018-06-21T03:00:50.073Z,17.60
2018-06-21T03:03:19.405Z,17.59
2018-06-21T03:05:49.185Z,17.53
2018-06-21T03:08:18.607Z,17.52
2018-06-21T03:10:48.093Z,17.51
2018-06-21T03:13:17.847Z,17.46
2018-06-21T03:15:47.648Z,17.44
2018-06-21T03:18:17.425Z,17.54
2018-06-21T03:20:47.121Z,17.60
2018-06-21T03:23:16.830Z,17.63
2018-06-21T03:25:46.588Z,17.56
2018-06-21T03:28:16.313Z,17.62
2018-06-21T03:30:45.673Z,17.50
2018-06-21T03:33:15.618Z,17.38
2018-06-21T03:35:45.331Z,17.38
2018-06-21T03:38:15.090Z,17.25
2018-06-21T03:40:44.838Z,17.17
2018-06-21T03:43:14.520Z,17.03
2018-06-21T03:45:45.345Z,16.95
2018-06-21T03:48:15.066Z,16.84
2018-06-21T03:50:44.799Z,16.76
2018-06-21T03:53:14.543Z,16.71
2018-06-21T03:55:44.207Z,16.73
2018-06-21T03:58:13.948Z,16.97
2018-06-21T04:00:43.757Z,17.22
2018-06-21T04:03:13.620Z,17.37
2018-06-21T04:05:43.340Z,17.48
2018-06-21T04:08:12.793Z,17.63
2018-06-21T04:10:42.512Z,17.68
2018-06-21T04:13:12.259Z,17.76
2018-06-21T04:15:41.982Z,17.88
2018-06-21T04:18:11.760Z,17.93
2018-06-21T04:20:41.431Z,18.06
2018-06-21T04:23:11.147Z,18.26
2018-06-21T04:25:40.925Z,18.46
2018-06-21T04:28:10.615Z,18.46
2018-06-21T04:30:40.322Z,18.52
2018-06-21T04:33:10.087Z,18.38
2018-06-21T04:35:39.445Z,18.38
2018-06-21T04:38:09.233Z,18.33
2018-06-21T04:40:38.981Z,18.30
2018-06-21T04:43:08.669Z,18.34
2018-06-21T04:45:38.314Z,18.33
2018-06-21T04:48:07.971Z,18.46
2018-06-21T04:50:37.698Z,18.55
2018-06-21T04:53:07.722Z,18.71
2018-06-21T04:55:37.464Z,19.08
2018-06-21T04:58:07.493Z,18.98
2018-06-21T05:00:37.204Z,19.08
2018-06-21T05:03:06.997Z,19.02
2018-06-21T05:05:36.834Z,19.26
2018-06-21T05:08:06.621Z,18.93
2018-06-21T05:10:36.424Z,19.03
2018-06-21T05:13:06.217Z,18.88
2018-06-21T05:15:35.675Z,19.02
2018-06-21T05:18:05.447Z,19.12
2018-06-21T05:20:34.921Z,19.06
2018-06-21T05:23:04.793Z,19.06
2018-06-21T05:25:34.526Z,19.06
2018-06-21T05:28:04.278Z,19.62
2018-06-21T05:30:33.922Z,19.81
2018-06-21T05:33:03.248Z,20.12
2018-06-21T05:35:33.308Z,20.13
2018-06-21T05:38:03.028Z,20.45
2018-06-21T05:40:38.873Z,20.43
2018-06-21T05:43:08.537Z,20.34
2018-06-21T05:45:38.179Z,20.34
2018-06-21T05:48:09.015Z,20.33
2018-06-21T05:50:38.774Z,20.06
2018-06-21T05:53:08.368Z,19.66
2018-06-21T05:55:39.050Z,19.54
2018-06-21T05:58:10.837Z,19.33
2018-06-21T06:00:42.985Z,19.30
2018-06-21T06:03:12.623Z,19.13
2018-06-21T06:05:42.310Z,18.93
2018-06-21T06:08:11.981Z,18.93
2018-06-21T06:10:41.618Z,18.87
2018-06-21T06:13:11.274Z,18.79
2018-06-21T06:15:40.901Z,18.62
2018-06-21T06:18:10.698Z,18.58
2018-06-21T06:20:40.352Z,18.33
2018-06-21T06:23:09.792Z,18.23
2018-06-21T06:25:39.460Z,18.24
2018-06-21T06:28:09.159Z,17.77
2018-06-21T06:30:38.800Z,17.79
2018-06-21T06:33:08.114Z,17.61
2018-06-21T06:35:37.915Z,17.72
2018-06-21T06:38:07.244Z,17.42
2018-06-21T06:40:36.960Z,17.57
2018-06-21T06:43:06.594Z,17.53
2018-06-21T06:45:36.288Z,17.47
2018-06-21T06:48:05.973Z,17.63
2018-06-21T06:50:36.019Z,17.80
2018-06-21T06:53:05.788Z,17.97
2018-06-21T06:55:39.814Z,17.88
2018-06-21T06:58:09.693Z,18.08
2018-06-21T07:00:39.373Z,18.05
2018-06-21T07:03:09.015Z,18.03
2018-06-21T07:05:38.706Z,18.35
2018-06-21T07:08:08.378Z,18.04
2018-06-21T07:10:37.990Z,18.13
2018-06-21T07:13:07.796Z,18.26
2018-06-21T07:15:37.450Z,18.16
2018-06-21T07:18:09.100Z,17.96
2018-06-21T07:20:38.716Z,18.07
2018-06-21T07:23:08.370Z,18.04
2018-06-21T07:25:38.010Z,17.97
2018-06-21T07:28:07.956Z,18.06
2018-06-21T07:30:37.569Z,18.02
2018-06-21T07:33:07.230Z,18.07
2018-06-21T07:35:39.865Z,18.10
2018-06-21T07:38:09.501Z,18.10
2018-06-21T07:40:39.189Z,18.11
2018-06-21T07:43:08.904Z,18.06
2018-06-21T07:45:41.653Z,18.37
2018-06-21T07:48:11.235Z,18.72
2018-06-21T07:50:40.889Z,19.34
2018-06-21T07:53:10.537Z,19.73
2018-06-21T07:55:40.242Z,20.19
2018-06-21T07:58:10.177Z,20.25
2018-06-21T08:00:39.857Z,20.59
2018-06-21T08:03:09.527Z,20.67
2018-06-21T08:05:39.213Z,20.53
2018-06-21T08:08:08.979Z,20.45
2018-06-21T08:10:38.312Z,20.44
2018-06-21T08:13:08.157Z,20.39
2018-06-21T08:15:37.816Z,20.43
2018-06-21T08:18:07.737Z,20.44
2018-06-21T08:20:37.144Z,20.42
2018-06-21T08:23:06.479Z,20.63
2018-06-21T08:25:36.154Z,20.41
2018-06-21T08:28:05.570Z,19.90
2018-06-21T08:30:35.326Z,19.39
2018-06-21T08:33:05.222Z,19.90
2018-06-21T08:35:34.914Z,20.15
2018-06-21T08:38:04.622Z,20.11
2018-06-21T08:40:33.923Z,20.01
2018-06-21T08:43:03.336Z,20.24
2018-06-21T08:45:33.412Z,19.99
2018-06-21T08:48:03.061Z,19.84
2018-06-21T08:50:32.481Z,20.31
2018-06-21T08:53:01.786Z,20.53
2018-06-21T08:55:31.466Z,20.83
2018-06-21T08:58:01.137Z,21.38
2018-06-21T09:00:30.791Z,21.70
2018-06-21T09:03:00.425Z,21.95
2018-06-21T09:05:30.077Z,21.97
2018-06-21T09:07:59.749Z,21.75
2018-06-21T09:10:29.075Z,21.41
2018-06-21T09:12:58.704Z,21.10
2018-06-21T09:15:28.632Z,20.66
2018-06-21T10:05:17.403Z,25.49
2018-06-21T10:07:47.044Z,25.57
2018-06-21T10:10:16.454Z,25.82
2018-06-21T10:12:46.394Z,26.06
2018-06-21T10:15:17.403Z,25.92
2018-06-21T10:17:47.006Z,25.16
2018-06-21T10:20:16.698Z,23.79
2018-06-21T10:22:46.506Z,24.48
2018-06-21T10:25:16.367Z,25.11
2018-06-21T10:27:46.037Z,26.63
2018-06-21T10:30:15.683Z,25.32
2018-06-21T10:32:45.306Z,23.67
2018-06-21T10:35:14.944Z,22.06
2018-06-21T10:37:44.696Z,21.03
2018-06-21T10:40:14.179Z,20.87
2018-06-21T10:42:43.820Z,21.81
2018-06-21T10:45:13.523Z,23.89
2018-06-21T10:47:43.183Z,24.13
2018-06-21T10:50:12.812Z,23.85
2018-06-21T10:52:42.530Z,23.26
2018-06-21T10:55:12.339Z,24.19
2018-06-21T10:57:41.978Z,24.13
2018-06-21T11:00:11.670Z,24.17
2018-06-21T11:02:41.304Z,24.91
2018-06-21T11:05:10.990Z,26.00
2018-06-21T11:07:40.740Z,25.17
2018-06-21T11:10:10.390Z,25.18
2018-06-21T11:12:40.074Z,25.74
2018-06-21T11:15:09.877Z,26.08
2018-06-21T11:17:39.526Z,25.27
2018-06-21T11:20:09.266Z,23.87
2018-06-21T11:22:38.937Z,22.85
2018-06-21T11:25:08.729Z,23.39
2018-06-21T11:27:38.576Z,24.12
2018-06-21T11:30:08.593Z,24.44
2018-06-21T11:32:38.252Z,24.97
2018-06-21T11:35:07.937Z,23.49
2018-06-21T11:37:37.641Z,24.27
2018-06-21T11:40:07.129Z,24.90
2018-06-21T11:42:36.917Z,25.17
2018-06-21T11:45:06.828Z,25.65
2018-06-21T11:47:36.553Z,24.06
2018-06-21T11:50:06.470Z,23.49
2018-06-21T11:52:36.126Z,24.18
2018-06-21T11:55:05.581Z,24.25
2018-06-21T11:57:35.197Z,24.41
2018-06-21T12:00:05.096Z,24.43
2018-06-21T12:02:35.102Z,24.41
2018-06-21T12:05:04.828Z,24.59
2018-06-21T12:07:34.474Z,24.69
2018-06-21T12:10:04.210Z,25.70
2018-06-21T12:12:33.871Z,25.10
2018-06-21T12:15:03.598Z,24.68
2018-06-21T12:17:33.202Z,24.69
2018-06-21T12:20:02.953Z,25.22
2018-06-21T12:22:32.819Z,25.43
2018-06-21T12:25:02.520Z,24.30
2018-06-21T12:27:32.367Z,25.17
2018-06-21T12:30:02.003Z,25.60
2018-06-21T12:32:31.660Z,25.12
2018-06-21T12:35:01.310Z,25.08
2018-06-21T12:37:30.939Z,25.34
2018-06-21T12:40:01.643Z,24.93
2018-06-21T12:42:31.291Z,24.46
2018-06-21T12:45:01.010Z,23.95
2018-06-21T12:47:30.749Z,24.44
2018-06-21T12:50:00.394Z,24.83
2018-06-21T12:52:30.149Z,25.17
2018-06-21T12:54:59.752Z,24.54
2018-06-21T12:57:29.381Z,23.89
2018-06-21T12:59:59.136Z,24.64
2018-06-21T13:02:28.778Z,25.16
2018-06-21T13:04:58.483Z,23.14
2018-06-21T13:07:28.174Z,23.02
2018-06-21T13:10:14.652Z,24.21
2018-06-21T13:13:06.358Z,24.65
2018-06-21T13:15:36.059Z,23.90
2018-06-21T13:18:05.895Z,23.49
2018-06-21T13:20:35.765Z,24.19
2018-06-21T13:23:05.763Z,22.85
2018-06-21T13:25:35.432Z,23.77
2018-06-21T13:28:05.673Z,23.78
2018-06-21T13:30:35.304Z,23.51
2018-06-21T13:33:05.174Z,24.01
2018-06-21T13:35:34.818Z,24.06
2018-06-21T13:38:04.644Z,23.79
2018-06-21T13:40:34.269Z,24.50
2018-06-21T13:43:04.061Z,24.10
2018-06-21T13:45:33.845Z,24.41
2018-06-21T13:48:03.498Z,24.68
2018-06-21T13:50:33.211Z,24.81
2018-06-21T13:53:02.850Z,24.29
2018-06-21T13:55:32.494Z,24.26
2018-06-21T13:58:02.185Z,24.78
2018-06-21T14:00:31.858Z,24.97
2018-06-21T14:03:01.492Z,24.59
2018-06-21T14:05:31.243Z,24.73
2018-06-21T14:08:01.115Z,25.35
2018-06-21T14:10:30.754Z,23.60
2018-06-21T14:13:00.408Z,24.20
2018-06-21T14:15:30.064Z,23.13
2018-06-21T14:17:59.760Z,23.50
2018-06-21T14:20:29.397Z,24.36
2018-06-21T14:22:59.817Z,24.99
2018-06-21T14:25:29.544Z,24.96
2018-06-21T14:27:59.194Z,24.78
2018-06-21T14:30:28.532Z,24.25
2018-06-21T14:32:58.160Z,24.94
2018-06-21T14:35:27.863Z,24.92
2018-06-21T14:37:57.544Z,23.57
2018-06-21T14:40:27.226Z,21.36
2018-06-21T14:42:57.911Z,21.30
2018-06-21T14:45:27.884Z,22.52
2018-06-21T14:47:57.559Z,23.57
2018-06-21T14:50:27.205Z,22.96
2018-06-21T14:52:56.869Z,24.14
2018-06-21T14:55:26.587Z,24.77
2018-06-21T14:57:56.236Z,23.21
2018-06-21T15:00:25.926Z,22.52
2018-06-21T15:02:55.535Z,21.78
2018-06-21T15:05:25.405Z,20.34
2018-06-21T15:07:55.335Z,20.00
2018-06-21T15:10:24.713Z,19.60
2018-06-21T15:12:54.470Z,20.69
2018-06-21T15:15:24.149Z,22.10
2018-06-21T15:17:53.805Z,21.66
2018-06-21T15:20:23.467Z,20.96
2018-06-21T15:22:53.350Z,19.61
2018-06-21T15:25:23.016Z,19.95
2018-06-21T15:27:52.412Z,19.66
2018-06-21T15:30:22.105Z,20.66
2018-06-21T15:32:51.957Z,21.42
2018-06-21T15:35:21.731Z,21.46
2018-06-21T15:37:51.584Z,20.54
2018-06-21T15:40:21.256Z,21.61
2018-06-21T15:42:50.891Z,22.49
2018-06-21T15:45:20.886Z,22.88
2018-06-21T15:47:50.741Z,22.02
2018-06-21T15:50:20.485Z,20.83
2018-06-21T15:52:50.285Z,19.97
2018-06-21T15:55:19.628Z,20.62
2018-06-21T15:57:49.490Z,21.64
2018-06-21T16:00:19.212Z,22.23
2018-06-21T16:02:48.509Z,21.84
2018-06-21T16:05:18.433Z,21.08
2018-06-21T16:07:48.209Z,19.38
2018-06-21T16:10:18.045Z,18.80
2018-06-21T16:12:47.828Z,18.51
2018-06-21T16:15:17.465Z,18.00
2018-06-21T16:17:47.202Z,17.88
2018-06-21T16:20:16.557Z,18.38
2018-06-21T16:22:46.334Z,18.89
2018-06-21T16:25:16.040Z,19.11
2018-06-21T16:27:45.445Z,19.18
2018-06-21T16:30:14.833Z,19.02
2018-06-21T16:32:44.564Z,18.67
2018-06-21T16:35:14.250Z,18.40
2018-06-21T16:37:43.990Z,18.58
2018-06-21T16:40:13.431Z,18.24
2018-06-21T16:42:43.090Z,18.03
2018-06-21T16:45:12.846Z,18.12
2018-06-21T16:47:42.612Z,18.06
2018-06-21T16:50:12.465Z,18.15
2018-06-21T16:52:42.198Z,18.24
2018-06-21T16:55:11.867Z,18.22
2018-06-21T16:57:41.685Z,18.22
2018-06-21T17:00:11.442Z,17.99
2018-06-21T17:02:41.115Z,17.80
2018-06-21T17:05:10.869Z,17.74
2018-06-21T17:07:40.532Z,17.61
2018-06-21T17:10:10.242Z,17.65
2018-06-21T17:12:39.954Z,17.65
2018-06-21T17:15:09.803Z,17.79
2018-06-21T17:17:39.138Z,17.80
2018-06-21T17:20:08.842Z,17.45
2018-06-21T17:22:38.825Z,17.30
2018-06-21T17:25:08.599Z,17.37
2018-06-21T17:27:38.438Z,17.51
2018-06-21T17:30:08.185Z,17.88
2018-06-21T17:32:37.511Z,18.00
2018-06-21T17:35:07.216Z,17.85
2018-06-21T17:37:36.884Z,17.80
2018-06-21T17:40:06.705Z,17.95
2018-06-21T17:42:36.472Z,17.88
2018-06-21T17:45:06.223Z,17.80
2018-06-21T17:47:35.951Z,17.56
2018-06-21T17:50:06.083Z,17.33
2018-06-21T17:52:35.428Z,17.22
2018-06-21T17:55:05.151Z,17.08
2018-06-21T17:57:34.829Z,17.08
2018-06-21T18:00:04.328Z,17.09
2018-06-21T18:02:34.084Z,17.14
2018-06-21T18:05:04.700Z,17.08
2018-06-21T18:07:34.482Z,17.12
2018-06-21T18:10:04.321Z,17.07
2018-06-21T18:12:34.021Z,17.01
2018-06-21T18:15:03.566Z,17.15
2018-06-21T18:17:33.381Z,17.06
2018-06-21T18:20:03.336Z,16.95
2018-06-21T18:22:33.034Z,16.93
2018-06-21T18:25:02.862Z,16.82
2018-06-21T18:27:32.662Z,16.71
2018-06-21T18:30:02.415Z,16.54
2018-06-21T18:32:33.104Z,16.36
2018-06-21T18:35:02.917Z,16.16
2018-06-21T18:37:32.702Z,16.16
2018-06-21T18:40:02.131Z,16.10
2018-06-21T18:42:31.794Z,16.04
2018-06-21T18:45:01.528Z,16.19
2018-06-21T18:47:30.881Z,16.42
2018-06-21T18:50:00.654Z,16.37
2018-06-21T18:52:30.010Z,16.42
2018-06-21T18:54:59.665Z,16.47
2018-06-21T18:57:29.002Z,16.55
2018-06-21T18:59:58.758Z,16.41
2018-06-21T19:02:28.704Z,16.32
2018-06-21T19:04:58.102Z,16.30
2018-06-21T19:07:31.208Z,16.18
2018-06-21T19:10:06.026Z,16.11
2018-06-21T19:12:35.618Z,15.85
2018-06-21T19:15:05.482Z,15.72
2018-06-21T19:17:35.221Z,15.65
2018-06-21T19:20:05.088Z,15.58
2018-06-21T19:22:34.768Z,15.45
2018-06-21T19:25:04.589Z,15.39
2018-06-21T19:27:34.289Z,15.20
2018-06-21T19:30:04.139Z,15.05
2018-06-21T19:32:33.894Z,15.05
2018-06-21T19:35:03.629Z,14.90
2018-06-21T19:37:33.388Z,14.78
2018-06-21T19:40:03.080Z,14.60
2018-06-21T19:42:32.848Z,14.76
2018-06-21T19:45:02.573Z,14.66
2018-06-21T19:47:32.386Z,14.66
2018-06-21T19:50:02.275Z,14.52
2018-06-21T19:52:31.929Z,14.44
2018-06-21T19:55:01.627Z,14.16
2018-06-21T19:57:31.301Z,14.18
2018-06-21T20:00:00.639Z,14.11
2018-06-21T20:03:00.885Z,14.08
2018-06-21T20:05:30.875Z,14.00
2018-06-21T20:08:00.610Z,14.01
2018-06-21T20:10:30.335Z,14.08
2018-06-21T20:13:00.081Z,14.11
2018-06-21T20:15:31.110Z,14.01
2018-06-21T20:18:00.781Z,13.96
2018-06-21T20:20:34.405Z,13.78
2018-06-21T20:23:04.110Z,13.93
2018-06-21T20:25:33.874Z,14.01
2018-06-21T20:28:03.570Z,14.00
2018-06-21T20:30:32.959Z,13.90
2018-06-21T20:33:02.650Z,13.95
2018-06-21T20:35:32.347Z,13.82
2018-06-21T20:38:02.219Z,13.89
2018-06-21T20:40:31.628Z,13.76
2018-06-21T20:43:01.025Z,13.56
2018-06-21T20:45:30.926Z,13.45
2018-06-21T20:48:00.761Z,13.45
2018-06-21T20:50:30.449Z,13.48
2018-06-21T20:53:00.155Z,13.47
2018-06-21T20:55:29.851Z,13.44
2018-06-21T20:57:59.546Z,13.04
2018-06-21T21:00:29.261Z,13.39
2018-06-21T21:02:58.872Z,13.27
2018-06-21T21:05:29.810Z,13.10
2018-06-21T21:07:59.681Z,12.93
2018-06-21T21:10:29.322Z,13.08
2018-06-21T21:12:58.605Z,13.15
2018-06-21T21:15:28.280Z,12.97
2018-06-21T21:17:57.915Z,12.98
2018-06-21T21:20:27.645Z,12.81
2018-06-21T21:22:57.281Z,12.96
2018-06-21T21:25:26.906Z,13.06
2018-06-21T21:27:56.566Z,12.92
2018-06-21T21:30:26.193Z,12.91
2018-06-21T21:32:55.493Z,12.91
2018-06-21T21:35:25.344Z,13.08
2018-06-21T21:37:54.974Z,12.95
2018-06-21T21:40:24.725Z,12.96
2018-06-21T21:42:54.464Z,12.97
2018-06-21T21:45:24.134Z,12.84
2018-06-21T21:47:53.796Z,12.85
2018-06-21T21:50:23.440Z,12.70
2018-06-21T21:52:53.062Z,12.38
2018-06-21T21:55:22.789Z,12.52
2018-06-21T21:57:52.409Z,12.28
2018-06-21T22:00:59.172Z,12.56
2018-06-21T22:03:28.784Z,12.50
2018-06-21T22:05:58.504Z,12.50
2018-06-21T22:08:28.138Z,12.49
2018-06-21T22:10:57.791Z,12.50
2018-06-21T22:13:27.449Z,12.39
2018-06-21T22:15:57.104Z,12.42
2018-06-21T22:18:26.819Z,12.22
2018-06-21T22:20:56.473Z,12.14
2018-06-21T22:23:26.217Z,12.16
2018-06-21T22:25:55.843Z,12.04
2018-06-21T22:28:25.541Z,11.90
2018-06-21T22:30:55.314Z,11.62
2018-06-21T22:33:25.065Z,11.59
2018-06-21T22:35:54.519Z,11.74
2018-06-21T22:38:24.159Z,12.07
2018-06-21T22:40:53.802Z,11.88
2018-06-21T22:43:24.047Z,11.83
2018-06-21T22:45:53.765Z,11.57
2018-06-21T22:48:23.510Z,11.71
2018-06-21T22:50:53.355Z,11.72
2018-06-21T22:53:23.166Z,11.52
2018-06-21T22:55:53.196Z,11.42
2018-06-21T22:58:22.800Z,11.32
2018-06-21T23:00:52.380Z,11.48
2018-06-21T23:03:22.166Z,11.41
2018-06-21T23:05:52.094Z,11.37
2018-06-21T23:08:22.028Z,11.29
2018-06-21T23:10:52.193Z,11.27
2018-06-21T23:13:21.711Z,11.50
2018-06-21T23:15:51.401Z,11.33
2018-06-21T23:18:31.837Z,11.18
2018-06-21T23:21:01.521Z,11.34
2018-06-21T23:23:31.559Z,10.96
2018-06-21T23:26:01.226Z,10.64
2018-06-21T23:28:30.858Z,10.67
2018-06-21T23:31:00.480Z,10.51
2018-06-21T23:33:30.263Z,10.87
2018-06-21T23:36:00.615Z,10.83
2018-06-21T23:38:30.357Z,10.64
2018-06-21T23:41:00.135Z,10.77
2018-06-21T23:43:29.747Z,10.85
2018-06-21T23:45:59.378Z,10.71
2018-06-21T23:48:29.088Z,10.66
2018-06-21T23:50:58.718Z,10.74
2018-06-21T23:53:28.405Z,10.57
2018-06-21T23:55:58.092Z,10.50
2018-06-21T23:58:27.817Z,10.38
